sensor_id;sensor_type;location;lat;lon;timestamp;temperature;humidity
42905;DHT22;28550;51.228;4.528;2023-05-20T00:00:08;12.40;50.10
42905;DHT22;28550;51.228;4.528;2023-05-20T00:02:35;12.40;47.90
42905;DHT22;28550;51.228;4.528;2023-05-20T00:05:01;12.30;50.90
42905;DHT22;28550;51.228;4.528;2023-05-20T00:07:27;12.30;54.70
42905;DHT22;28550;51.228;4.528;2023-05-20T00:09:53;12.20;55.40
42905;DHT22;28550;51.228;4.528;2023-05-20T00:12:20;12.10;55.90
42905;DHT22;28550;51.228;4.528;2023-05-20T00:14:46;12.20;50.70
42905;DHT22;28550;51.228;4.528;2023-05-20T00:17:12;12.20;48.40
42905;DHT22;28550;51.228;4.528;2023-05-20T00:19:37;12.10;51.60
42905;DHT22;28550;51.228;4.528;2023-05-20T00:22:04;12.10;45.70
42905;DHT22;28550;51.228;4.528;2023-05-20T00:24:29;12.10;39.40
42905;DHT22;28550;51.228;4.528;2023-05-20T00:26:55;12.00;32.00
42905;DHT22;28550;51.228;4.528;2023-05-20T00:29:21;12.00;27.90
42905;DHT22;28550;51.228;4.528;2023-05-20T00:31:47;12.10;14.30
42905;DHT22;28550;51.228;4.528;2023-05-20T00:34:12;12.10;1.00
42905;DHT22;28550;51.228;4.528;2023-05-20T00:36:38;12.10;1.00
42905;DHT22;28550;51.228;4.528;2023-05-20T00:39:04;12.10;1.00
42905;DHT22;28550;51.228;4.528;2023-05-20T00:41:31;12.20;1.00
42905;DHT22;28550;51.228;4.528;2023-05-20T00:43:57;12.10;1.00
42905;DHT22;28550;51.228;4.528;2023-05-20T00:46:23;12.20;1.00
42905;DHT22;28550;51.228;4.528;2023-05-20T00:48:50;12.10;1.00
42905;DHT22;28550;51.228;4.528;2023-05-20T00:51:17;12.10;1.00
42905;DHT22;28550;51.228;4.528;2023-05-20T00:53:43;12.10;1.00
42905;DHT22;28550;51.228;4.528;2023-05-20T00:56:09;12.10;1.00
42905;DHT22;28550;51.228;4.528;2023-05-20T00:58:35;12.20;1.00
42905;DHT22;28550;51.228;4.528;2023-05-20T01:01:02;12.20;1.00
42905;DHT22;28550;51.228;4.528;2023-05-20T01:03:29;12.10;1.00
42905;DHT22;28550;51.228;4.528;2023-05-20T01:05:55;12.10;1.00
42905;DHT22;28550;51.228;4.528;2023-05-20T01:08:22;12.20;1.00
42905;DHT22;28550;51.228;4.528;2023-05-20T01:10:52;12.10;1.00
42905;DHT22;28550;51.228;4.528;2023-05-20T01:13:20;12.10;1.00
42905;DHT22;28550;51.228;4.528;2023-05-20T01:15:49;12.00;1.00
42905;DHT22;28550;51.228;4.528;2023-05-20T01:18:16;11.90;1.00
42905;DHT22;28550;51.228;4.528;2023-05-20T01:20:49;12.00;1.00
42905;DHT22;28550;51.228;4.528;2023-05-20T01:23:16;12.00;1.00
42905;DHT22;28550;51.228;4.528;2023-05-20T01:25:42;11.90;1.00
42905;DHT22;28550;51.228;4.528;2023-05-20T01:28:08;11.90;1.00
42905;DHT22;28550;51.228;4.528;2023-05-20T01:30:37;11.90;1.00
42905;DHT22;28550;51.228;4.528;2023-05-20T01:33:09;11.90;1.00
42905;DHT22;28550;51.228;4.528;2023-05-20T01:35:35;11.90;1.00
42905;DHT22;28550;51.228;4.528;2023-05-20T01:38:03;11.90;1.00
42905;DHT22;28550;51.228;4.528;2023-05-20T01:40:29;11.90;1.00
42905;DHT22;28550;51.228;4.528;2023-05-20T01:42:57;11.70;1.00
42905;DHT22;28550;51.228;4.528;2023-05-20T01:45:23;11.70;1.00
42905;DHT22;28550;51.228;4.528;2023-05-20T01:47:50;11.70;1.00
42905;DHT22;28550;51.228;4.528;2023-05-20T01:50:15;11.70;1.00
42905;DHT22;28550;51.228;4.528;2023-05-20T01:52:41;11.60;1.00
42905;DHT22;28550;51.228;4.528;2023-05-20T01:55:07;11.60;1.00
42905;DHT22;28550;51.228;4.528;2023-05-20T01:57:33;11.60;1.00
42905;DHT22;28550;51.228;4.528;2023-05-20T01:59:59;11.50;1.00
42905;DHT22;28550;51.228;4.528;2023-05-20T02:02:24;11.60;1.00
42905;DHT22;28550;51.228;4.528;2023-05-20T02:04:52;11.60;1.00
42905;DHT22;28550;51.228;4.528;2023-05-20T02:07:18;11.50;1.00
42905;DHT22;28550;51.228;4.528;2023-05-20T02:09:44;11.50;1.00
42905;DHT22;28550;51.228;4.528;2023-05-20T02:12:10;11.50;1.00
42905;DHT22;28550;51.228;4.528;2023-05-20T02:14:42;11.40;1.00
42905;DHT22;28550;51.228;4.528;2023-05-20T02:17:08;11.40;1.00
42905;DHT22;28550;51.228;4.528;2023-05-20T02:19:33;11.30;1.00
42905;DHT22;28550;51.228;4.528;2023-05-20T02:21:59;11.30;1.00
42905;DHT22;28550;51.228;4.528;2023-05-20T02:24:25;11.30;1.00
42905;DHT22;28550;51.228;4.528;2023-05-20T02:26:50;11.30;1.00
42905;DHT22;28550;51.228;4.528;2023-05-20T02:29:18;11.30;1.00
42905;DHT22;28550;51.228;4.528;2023-05-20T02:31:46;11.40;1.00
42905;DHT22;28550;51.228;4.528;2023-05-20T02:34:16;11.30;1.00
42905;DHT22;28550;51.228;4.528;2023-05-20T02:36:42;11.30;1.00
42905;DHT22;28550;51.228;4.528;2023-05-20T02:39:08;11.30;1.00
42905;DHT22;28550;51.228;4.528;2023-05-20T02:41:34;11.20;1.00
42905;DHT22;28550;51.228;4.528;2023-05-20T02:43:59;11.20;1.00
42905;DHT22;28550;51.228;4.528;2023-05-20T02:46:25;11.10;1.00
42905;DHT22;28550;51.228;4.528;2023-05-20T02:48:51;11.10;1.00
42905;DHT22;28550;51.228;4.528;2023-05-20T02:51:16;11.10;1.00
42905;DHT22;28550;51.228;4.528;2023-05-20T02:53:42;11.10;1.00
42905;DHT22;28550;51.228;4.528;2023-05-20T02:56:08;11.10;1.00
42905;DHT22;28550;51.228;4.528;2023-05-20T02:58:34;11.10;1.00
42905;DHT22;28550;51.228;4.528;2023-05-20T03:01:00;11.00;1.70
42905;DHT22;28550;51.228;4.528;2023-05-20T03:03:26;11.00;4.60
42905;DHT22;28550;51.228;4.528;2023-05-20T03:05:53;10.90;11.90
42905;DHT22;28550;51.228;4.528;2023-05-20T03:08:20;10.90;15.80
42905;DHT22;28550;51.228;4.528;2023-05-20T03:10:46;10.90;17.60
42905;DHT22;28550;51.228;4.528;2023-05-20T03:13:12;10.80;21.20
42905;DHT22;28550;51.228;4.528;2023-05-20T03:15:42;10.80;21.70
42905;DHT22;28550;51.228;4.528;2023-05-20T03:18:12;10.80;24.80
42905;DHT22;28550;51.228;4.528;2023-05-20T03:20:38;10.80;24.60
42905;DHT22;28550;51.228;4.528;2023-05-20T03:23:06;10.80;22.50
42905;DHT22;28550;51.228;4.528;2023-05-20T03:25:32;10.80;27.70
42905;DHT22;28550;51.228;4.528;2023-05-20T03:27:59;10.80;28.60
42905;DHT22;28550;51.228;4.528;2023-05-20T03:30:26;10.80;26.90
42905;DHT22;28550;51.228;4.528;2023-05-20T03:32:52;10.80;28.70
42905;DHT22;28550;51.228;4.528;2023-05-20T03:35:18;10.70;32.20
42905;DHT22;28550;51.228;4.528;2023-05-20T03:37:44;10.60;33.10
42905;DHT22;28550;51.228;4.528;2023-05-20T03:40:10;10.70;33.70
42905;DHT22;28550;51.228;4.528;2023-05-20T03:42:37;10.60;34.20
42905;DHT22;28550;51.228;4.528;2023-05-20T03:45:03;10.70;31.60
42905;DHT22;28550;51.228;4.528;2023-05-20T03:47:30;10.70;35.30
42905;DHT22;28550;51.228;4.528;2023-05-20T03:49:56;10.70;34.20
42905;DHT22;28550;51.228;4.528;2023-05-20T03:52:21;10.70;36.10
42905;DHT22;28550;51.228;4.528;2023-05-20T03:54:47;10.70;36.50
42905;DHT22;28550;51.228;4.528;2023-05-20T03:57:13;10.60;41.10
42905;DHT22;28550;51.228;4.528;2023-05-20T03:59:39;10.70;35.10
42905;DHT22;28550;51.228;4.528;2023-05-20T04:02:05;10.70;38.00
42905;DHT22;28550;51.228;4.528;2023-05-20T04:04:31;10.60;41.20
42905;DHT22;28550;51.228;4.528;2023-05-20T04:07:00;10.60;43.60
42905;DHT22;28550;51.228;4.528;2023-05-20T04:09:26;10.60;42.20
42905;DHT22;28550;51.228;4.528;2023-05-20T04:11:52;10.60;41.00
42905;DHT22;28550;51.228;4.528;2023-05-20T04:14:19;10.60;43.20
42905;DHT22;28550;51.228;4.528;2023-05-20T04:16:44;10.70;42.70
42905;DHT22;28550;51.228;4.528;2023-05-20T04:19:11;10.60;44.20
42905;DHT22;28550;51.228;4.528;2023-05-20T04:21:37;10.60;48.20
42905;DHT22;28550;51.228;4.528;2023-05-20T04:24:03;10.60;47.00
42905;DHT22;28550;51.228;4.528;2023-05-20T04:26:30;10.60;50.00
42905;DHT22;28550;51.228;4.528;2023-05-20T04:28:58;10.70;48.00
42905;DHT22;28550;51.228;4.528;2023-05-20T04:31:27;10.80;41.90
42905;DHT22;28550;51.228;4.528;2023-05-20T04:33:53;10.90;37.50
42905;DHT22;28550;51.228;4.528;2023-05-20T04:36:19;10.90;34.70
42905;DHT22;28550;51.228;4.528;2023-05-20T04:38:45;10.90;35.40
42905;DHT22;28550;51.228;4.528;2023-05-20T04:41:11;10.90;37.20
42905;DHT22;28550;51.228;4.528;2023-05-20T04:43:37;10.90;34.80
42905;DHT22;28550;51.228;4.528;2023-05-20T04:46:04;11.00;33.00
42905;DHT22;28550;51.228;4.528;2023-05-20T04:48:31;11.00;37.00
42905;DHT22;28550;51.228;4.528;2023-05-20T04:51:01;11.10;33.00
42905;DHT22;28550;51.228;4.528;2023-05-20T04:53:27;11.30;23.90
42905;DHT22;28550;51.228;4.528;2023-05-20T04:55:58;11.40;15.00
42905;DHT22;28550;51.228;4.528;2023-05-20T04:58:23;11.40;12.30
42905;DHT22;28550;51.228;4.528;2023-05-20T05:00:52;11.40;12.90
42905;DHT22;28550;51.228;4.528;2023-05-20T05:03:19;11.40;17.20
42905;DHT22;28550;51.228;4.528;2023-05-20T05:05:46;11.50;19.40
42905;DHT22;28550;51.228;4.528;2023-05-20T05:08:11;11.40;10.60
42905;DHT22;28550;51.228;4.528;2023-05-20T05:10:40;11.50;13.70
42905;DHT22;28550;51.228;4.528;2023-05-20T05:13:07;11.60;7.50
42905;DHT22;28550;51.228;4.528;2023-05-20T05:15:33;11.70;4.10
42905;DHT22;28550;51.228;4.528;2023-05-20T05:18:00;11.80;1.00
42905;DHT22;28550;51.228;4.528;2023-05-20T05:20:28;11.80;1.00
42905;DHT22;28550;51.228;4.528;2023-05-20T05:22:54;11.90;1.00
42905;DHT22;28550;51.228;4.528;2023-05-20T05:25:24;11.90;1.00
42905;DHT22;28550;51.228;4.528;2023-05-20T05:27:52;12.00;1.00
42905;DHT22;28550;51.228;4.528;2023-05-20T05:30:19;12.20;1.00
42905;DHT22;28550;51.228;4.528;2023-05-20T05:32:46;12.30;1.00
42905;DHT22;28550;51.228;4.528;2023-05-20T05:35:12;12.30;1.00
42905;DHT22;28550;51.228;4.528;2023-05-20T05:37:38;12.40;1.00
42905;DHT22;28550;51.228;4.528;2023-05-20T05:40:05;12.60;1.00
42905;DHT22;28550;51.228;4.528;2023-05-20T05:42:32;12.60;1.00
42905;DHT22;28550;51.228;4.528;2023-05-20T05:44:58;12.70;1.00
42905;DHT22;28550;51.228;4.528;2023-05-20T05:47:23;12.80;1.00
42905;DHT22;28550;51.228;4.528;2023-05-20T05:49:54;12.90;1.00
42905;DHT22;28550;51.228;4.528;2023-05-20T05:52:19;13.00;1.00
42905;DHT22;28550;51.228;4.528;2023-05-20T05:54:46;13.20;1.00
42905;DHT22;28550;51.228;4.528;2023-05-20T05:57:11;13.20;1.00
42905;DHT22;28550;51.228;4.528;2023-05-20T05:59:37;13.30;1.00
42905;DHT22;28550;51.228;4.528;2023-05-20T06:02:04;13.50;1.00
42905;DHT22;28550;51.228;4.528;2023-05-20T06:04:30;13.60;1.00
42905;DHT22;28550;51.228;4.528;2023-05-20T06:06:56;13.70;1.00
42905;DHT22;28550;51.228;4.528;2023-05-20T06:09:22;13.80;1.00
42905;DHT22;28550;51.228;4.528;2023-05-20T06:11:47;14.00;1.00
42905;DHT22;28550;51.228;4.528;2023-05-20T06:14:13;14.10;99.90
42905;DHT22;28550;51.228;4.528;2023-05-20T06:16:39;14.40;99.90
42905;DHT22;28550;51.228;4.528;2023-05-20T06:19:04;14.40;99.90
42905;DHT22;28550;51.228;4.528;2023-05-20T06:21:31;14.50;1.00
42905;DHT22;28550;51.228;4.528;2023-05-20T06:23:57;14.50;99.90
42905;DHT22;28550;51.228;4.528;2023-05-20T06:26:24;14.60;1.00
42905;DHT22;28550;51.228;4.528;2023-05-20T06:28:49;14.60;99.90
42905;DHT22;28550;51.228;4.528;2023-05-20T06:31:15;14.80;1.00
42905;DHT22;28550;51.228;4.528;2023-05-20T06:33:42;15.00;1.00
42905;DHT22;28550;51.228;4.528;2023-05-20T06:36:09;15.20;1.00
42905;DHT22;28550;51.228;4.528;2023-05-20T06:38:36;15.30;14.70
42905;DHT22;28550;51.228;4.528;2023-05-20T06:41:01;15.60;1.00
42905;DHT22;28550;51.228;4.528;2023-05-20T06:43:27;15.70;99.90
42905;DHT22;28550;51.228;4.528;2023-05-20T06:45:53;16.00;24.70
42905;DHT22;28550;51.228;4.528;2023-05-20T06:48:20;16.20;1.00
42905;DHT22;28550;51.228;4.528;2023-05-20T06:50:46;16.40;99.90
42905;DHT22;28550;51.228;4.528;2023-05-20T06:53:12;16.80;99.90
42905;DHT22;28550;51.228;4.528;2023-05-20T06:55:38;17.10;99.90
42905;DHT22;28550;51.228;4.528;2023-05-20T06:58:03;17.20;4.10
42905;DHT22;28550;51.228;4.528;2023-05-20T07:00:29;17.30;99.90
42905;DHT22;28550;51.228;4.528;2023-05-20T07:02:55;17.60;73.70
42905;DHT22;28550;51.228;4.528;2023-05-20T07:05:22;18.10;1.00
42905;DHT22;28550;51.228;4.528;2023-05-20T07:07:49;18.70;99.90
42905;DHT22;28550;51.228;4.528;2023-05-20T07:10:14;18.80;99.90
42905;DHT22;28550;51.228;4.528;2023-05-20T07:12:40;18.90;1.00
42905;DHT22;28550;51.228;4.528;2023-05-20T07:15:07;19.30;1.00
42905;DHT22;28550;51.228;4.528;2023-05-20T07:17:33;19.40;1.00
42905;DHT22;28550;51.228;4.528;2023-05-20T07:19:58;19.60;99.90
42905;DHT22;28550;51.228;4.528;2023-05-20T07:22:24;19.60;99.90
42905;DHT22;28550;51.228;4.528;2023-05-20T07:24:51;19.50;99.90
42905;DHT22;28550;51.228;4.528;2023-05-20T07:27:17;20.20;72.10
42905;DHT22;28550;51.228;4.528;2023-05-20T07:29:43;20.10;99.90
42905;DHT22;28550;51.228;4.528;2023-05-20T07:32:08;20.20;99.90
42905;DHT22;28550;51.228;4.528;2023-05-20T07:34:35;21.00;1.00
42905;DHT22;28550;51.228;4.528;2023-05-20T07:37:00;21.40;99.90
42905;DHT22;28550;51.228;4.528;2023-05-20T07:39:26;20.90;99.90
42905;DHT22;28550;51.228;4.528;2023-05-20T07:41:52;20.50;99.90
42905;DHT22;28550;51.228;4.528;2023-05-20T07:44:18;20.20;99.90
42905;DHT22;28550;51.228;4.528;2023-05-20T07:46:47;20.40;99.90
42905;DHT22;28550;51.228;4.528;2023-05-20T07:49:14;21.00;99.90
42905;DHT22;28550;51.228;4.528;2023-05-20T07:51:40;22.00;38.10
42905;DHT22;28550;51.228;4.528;2023-05-20T07:54:06;23.00;1.00
42905;DHT22;28550;51.228;4.528;2023-05-20T07:56:31;23.40;1.00
42905;DHT22;28550;51.228;4.528;2023-05-20T07:58:58;22.50;99.90
42905;DHT22;28550;51.228;4.528;2023-05-20T08:01:28;22.20;99.90
42905;DHT22;28550;51.228;4.528;2023-05-20T08:03:54;22.20;99.90
42905;DHT22;28550;51.228;4.528;2023-05-20T08:06:20;22.30;99.90
42905;DHT22;28550;51.228;4.528;2023-05-20T08:08:46;22.20;99.90
42905;DHT22;28550;51.228;4.528;2023-05-20T08:11:12;22.50;99.90
42905;DHT22;28550;51.228;4.528;2023-05-20T08:13:38;22.80;99.90
42905;DHT22;28550;51.228;4.528;2023-05-20T08:16:06;22.60;99.90
42905;DHT22;28550;51.228;4.528;2023-05-20T08:18:34;22.30;99.90
42905;DHT22;28550;51.228;4.528;2023-05-20T08:21:02;22.90;99.90
42905;DHT22;28550;51.228;4.528;2023-05-20T08:23:28;22.10;99.90
42905;DHT22;28550;51.228;4.528;2023-05-20T08:25:54;22.50;99.90
42905;DHT22;28550;51.228;4.528;2023-05-20T08:28:20;22.30;99.90
42905;DHT22;28550;51.228;4.528;2023-05-20T08:30:46;22.70;99.90
42905;DHT22;28550;51.228;4.528;2023-05-20T08:33:15;23.40;99.90
42905;DHT22;28550;51.228;4.528;2023-05-20T08:35:42;23.50;99.90
42905;DHT22;28550;51.228;4.528;2023-05-20T08:38:07;23.50;99.90
42905;DHT22;28550;51.228;4.528;2023-05-20T08:40:34;23.60;99.90
42905;DHT22;28550;51.228;4.528;2023-05-20T08:43:03;24.20;99.90
42905;DHT22;28550;51.228;4.528;2023-05-20T08:45:31;24.80;99.90
42905;DHT22;28550;51.228;4.528;2023-05-20T08:47:57;24.20;99.90
42905;DHT22;28550;51.228;4.528;2023-05-20T08:50:24;24.80;99.90
42905;DHT22;28550;51.228;4.528;2023-05-20T08:52:50;24.70;99.90
42905;DHT22;28550;51.228;4.528;2023-05-20T08:55:36;25.40;99.90
42905;DHT22;28550;51.228;4.528;2023-05-20T08:58:02;25.00;99.90
42905;DHT22;28550;51.228;4.528;2023-05-20T09:00:29;25.40;99.90
42905;DHT22;28550;51.228;4.528;2023-05-20T09:02:55;25.20;99.90
42905;DHT22;28550;51.228;4.528;2023-05-20T09:05:21;24.20;99.90
42905;DHT22;28550;51.228;4.528;2023-05-20T09:07:48;24.10;99.90
42905;DHT22;28550;51.228;4.528;2023-05-20T09:10:14;24.10;99.90
42905;DHT22;28550;51.228;4.528;2023-05-20T09:12:40;24.70;99.90
42905;DHT22;28550;51.228;4.528;2023-05-20T09:15:06;25.30;99.90
42905;DHT22;28550;51.228;4.528;2023-05-20T09:17:36;25.80;99.90
42905;DHT22;28550;51.228;4.528;2023-05-20T09:20:06;26.20;99.90
42905;DHT22;28550;51.228;4.528;2023-05-20T09:22:33;25.40;99.90
42905;DHT22;28550;51.228;4.528;2023-05-20T09:24:59;25.20;99.90
42905;DHT22;28550;51.228;4.528;2023-05-20T09:27:25;25.20;99.90
42905;DHT22;28550;51.228;4.528;2023-05-20T09:29:51;24.70;99.90
42905;DHT22;28550;51.228;4.528;2023-05-20T09:32:20;25.00;99.90
42905;DHT22;28550;51.228;4.528;2023-05-20T09:34:49;25.20;99.90
42905;DHT22;28550;51.228;4.528;2023-05-20T09:37:17;26.00;99.90
42905;DHT22;28550;51.228;4.528;2023-05-20T09:40:06;26.20;99.90
42905;DHT22;28550;51.228;4.528;2023-05-20T09:43:11;25.40;99.90
42905;DHT22;28550;51.228;4.528;2023-05-20T09:45:38;24.20;99.90
42905;DHT22;28550;51.228;4.528;2023-05-20T09:48:04;23.50;99.90
42905;DHT22;28550;51.228;4.528;2023-05-20T09:50:33;23.80;99.90
42905;DHT22;28550;51.228;4.528;2023-05-20T09:53:03;23.40;99.90
42905;DHT22;28550;51.228;4.528;2023-05-20T09:55:30;22.90;99.90
42905;DHT22;28550;51.228;4.528;2023-05-20T09:57:58;23.10;99.90
42905;DHT22;28550;51.228;4.528;2023-05-20T10:00:26;23.30;99.90
42905;DHT22;28550;51.228;4.528;2023-05-20T10:02:52;24.30;99.90
42905;DHT22;28550;51.228;4.528;2023-05-20T10:34:17;26.00;98.90
42905;DHT22;28550;51.228;4.528;2023-05-20T10:36:57;26.80;99.90
42905;DHT22;28550;51.228;4.528;2023-05-20T10:39:29;26.90;97.60
42905;DHT22;28550;51.228;4.528;2023-05-20T10:42:12;26.70;85.10
42905;DHT22;28550;51.228;4.528;2023-05-20T10:44:46;27.20;92.80
42905;DHT22;28550;51.228;4.528;2023-05-20T10:47:12;26.80;90.50
42905;DHT22;28550;51.228;4.528;2023-05-20T10:49:44;27.00;82.70
42905;DHT22;28550;51.228;4.528;2023-05-20T10:52:13;27.60;73.90
42905;DHT22;28550;51.228;4.528;2023-05-20T10:57:21;28.30;86.70
42905;DHT22;28550;51.228;4.528;2023-05-20T10:59:47;28.30;80.70
42905;DHT22;28550;51.228;4.528;2023-05-20T11:02:17;28.60;76.90
42905;DHT22;28550;51.228;4.528;2023-05-20T11:04:43;29.50;65.90
42905;DHT22;28550;51.228;4.528;2023-05-20T11:07:12;29.20;67.20
42905;DHT22;28550;51.228;4.528;2023-05-20T11:09:48;28.70;56.60
42905;DHT22;28550;51.228;4.528;2023-05-20T11:12:14;28.80;64.00
42905;DHT22;28550;51.228;4.528;2023-05-20T11:14:39;29.00;39.50
42905;DHT22;28550;51.228;4.528;2023-05-20T11:17:08;29.10;32.30
42905;DHT22;28550;51.228;4.528;2023-05-20T11:19:36;29.60;49.60
42905;DHT22;28550;51.228;4.528;2023-05-20T11:22:02;28.80;20.60
42905;DHT22;28550;51.228;4.528;2023-05-20T11:24:28;29.50;12.10
42905;DHT22;28550;51.228;4.528;2023-05-20T11:26:55;29.70;16.70
42905;DHT22;28550;51.228;4.528;2023-05-20T11:29:25;28.30;14.50
42905;DHT22;28550;51.228;4.528;2023-05-20T11:31:51;28.60;28.30
42905;DHT22;28550;51.228;4.528;2023-05-20T11:34:22;29.20;15.80
42905;DHT22;28550;51.228;4.528;2023-05-20T11:36:58;30.00;21.20
42905;DHT22;28550;51.228;4.528;2023-05-20T11:39:24;29.60;17.40
42905;DHT22;28550;51.228;4.528;2023-05-20T11:41:54;30.30;23.70
42905;DHT22;28550;51.228;4.528;2023-05-20T11:44:26;31.50;10.70
42905;DHT22;28550;51.228;4.528;2023-05-20T11:47:01;31.40;14.30
42905;DHT22;28550;51.228;4.528;2023-05-20T11:49:28;30.60;14.60
42905;DHT22;28550;51.228;4.528;2023-05-20T11:51:56;29.90;1.00
42905;DHT22;28550;51.228;4.528;2023-05-20T11:54:34;29.50;7.50
42905;DHT22;28550;51.228;4.528;2023-05-20T11:57:01;29.50;14.70
42905;DHT22;28550;51.228;4.528;2023-05-20T11:59:27;29.70;7.70
42905;DHT22;28550;51.228;4.528;2023-05-20T12:01:52;29.90;13.40
42905;DHT22;28550;51.228;4.528;2023-05-20T12:04:20;29.30;8.20
42905;DHT22;28550;51.228;4.528;2023-05-20T12:06:47;28.70;18.70
42905;DHT22;28550;51.228;4.528;2023-05-20T12:09:14;29.10;15.20
42905;DHT22;28550;51.228;4.528;2023-05-20T12:11:40;29.10;6.90
42905;DHT22;28550;51.228;4.528;2023-05-20T12:14:06;29.00;13.30
42905;DHT22;28550;51.228;4.528;2023-05-20T12:16:35;28.90;17.20
42905;DHT22;28550;51.228;4.528;2023-05-20T12:19:02;28.90;15.00
42905;DHT22;28550;51.228;4.528;2023-05-20T12:21:37;29.30;16.00
42905;DHT22;28550;51.228;4.528;2023-05-20T12:24:04;29.10;11.30
42905;DHT22;28550;51.228;4.528;2023-05-20T12:26:33;29.40;8.40
42905;DHT22;28550;51.228;4.528;2023-05-20T12:29:00;29.80;1.00
42905;DHT22;28550;51.228;4.528;2023-05-20T12:31:26;30.80;4.10
42905;DHT22;28550;51.228;4.528;2023-05-20T12:33:55;31.80;3.30
42905;DHT22;28550;51.228;4.528;2023-05-20T12:36:22;31.60;11.50
42905;DHT22;28550;51.228;4.528;2023-05-20T12:38:47;31.60;4.60
42905;DHT22;28550;51.228;4.528;2023-05-20T12:41:13;31.20;3.00
42905;DHT22;28550;51.228;4.528;2023-05-20T12:43:39;30.80;1.00
42905;DHT22;28550;51.228;4.528;2023-05-20T12:46:08;30.40;6.40
42905;DHT22;28550;51.228;4.528;2023-05-20T12:48:34;28.70;5.60
42905;DHT22;28550;51.228;4.528;2023-05-20T12:51:00;27.20;4.00
42905;DHT22;28550;51.228;4.528;2023-05-20T12:53:29;26.30;3.30
42905;DHT22;28550;51.228;4.528;2023-05-20T12:55:55;26.20;2.40
42905;DHT22;28550;51.228;4.528;2023-05-20T12:58:24;26.20;7.30
42905;DHT22;28550;51.228;4.528;2023-05-20T13:00:50;27.20;7.60
42905;DHT22;28550;51.228;4.528;2023-05-20T13:03:15;28.40;4.40
42905;DHT22;28550;51.228;4.528;2023-05-20T13:05:41;28.10;2.90
42905;DHT22;28550;51.228;4.528;2023-05-20T13:08:10;28.80;1.00
42905;DHT22;28550;51.228;4.528;2023-05-20T13:10:37;29.40;1.00
42905;DHT22;28550;51.228;4.528;2023-05-20T13:13:06;30.20;1.00
42905;DHT22;28550;51.228;4.528;2023-05-20T13:15:33;30.80;6.60
42905;DHT22;28550;51.228;4.528;2023-05-20T13:18:00;30.40;4.00
42905;DHT22;28550;51.228;4.528;2023-05-20T13:20:25;30.10;1.00
42905;DHT22;28550;51.228;4.528;2023-05-20T13:22:52;28.70;1.00
42905;DHT22;28550;51.228;4.528;2023-05-20T13:25:18;27.90;1.00
42905;DHT22;28550;51.228;4.528;2023-05-20T13:27:44;26.50;1.00
42905;DHT22;28550;51.228;4.528;2023-05-20T13:30:10;26.20;1.00
42905;DHT22;28550;51.228;4.528;2023-05-20T13:32:39;27.40;7.30
42905;DHT22;28550;51.228;4.528;2023-05-20T13:35:13;27.60;16.10
42905;DHT22;28550;51.228;4.528;2023-05-20T13:37:42;27.60;15.50
42905;DHT22;28550;51.228;4.528;2023-05-20T13:40:17;28.60;3.60
42905;DHT22;28550;51.228;4.528;2023-05-20T13:42:45;28.70;9.30
42905;DHT22;28550;51.228;4.528;2023-05-20T13:45:24;29.60;13.40
42905;DHT22;28550;51.228;4.528;2023-05-20T13:47:50;30.60;1.60
42905;DHT22;28550;51.228;4.528;2023-05-20T13:50:18;30.90;5.50
42905;DHT22;28550;51.228;4.528;2023-05-20T13:52:50;29.60;1.00
42905;DHT22;28550;51.228;4.528;2023-05-20T13:55:16;28.50;1.00
42905;DHT22;28550;51.228;4.528;2023-05-20T13:57:41;27.50;1.00
42905;DHT22;28550;51.228;4.528;2023-05-20T14:00:08;26.60;3.20
42905;DHT22;28550;51.228;4.528;2023-05-20T14:02:34;27.40;8.30
42905;DHT22;28550;51.228;4.528;2023-05-20T14:05:00;28.90;10.50
42905;DHT22;28550;51.228;4.528;2023-05-20T14:07:27;30.30;4.80
42905;DHT22;28550;51.228;4.528;2023-05-20T14:10:00;30.40;3.80
42905;DHT22;28550;51.228;4.528;2023-05-20T14:12:30;29.10;4.10
42905;DHT22;28550;51.228;4.528;2023-05-20T14:14:56;28.50;13.30
42905;DHT22;28550;51.228;4.528;2023-05-20T14:17:22;27.50;9.70
42905;DHT22;28550;51.228;4.528;2023-05-20T14:19:48;26.80;3.20
42905;DHT22;28550;51.228;4.528;2023-05-20T14:22:16;26.60;7.30
42905;DHT22;28550;51.228;4.528;2023-05-20T14:24:45;26.80;7.70
42905;DHT22;28550;51.228;4.528;2023-05-20T14:27:11;26.30;4.80
42905;DHT22;28550;51.228;4.528;2023-05-20T14:29:39;25.90;13.70
42905;DHT22;28550;51.228;4.528;2023-05-20T14:32:05;25.60;7.10
42905;DHT22;28550;51.228;4.528;2023-05-20T14:34:33;26.00;11.90
42905;DHT22;28550;51.228;4.528;2023-05-20T14:36:59;26.00;1.00
42905;DHT22;28550;51.228;4.528;2023-05-20T14:39:30;26.00;1.00
42905;DHT22;28550;51.228;4.528;2023-05-20T14:41:55;26.20;1.00
42905;DHT22;28550;51.228;4.528;2023-05-20T14:44:22;25.20;9.00
42905;DHT22;28550;51.228;4.528;2023-05-20T14:46:48;24.00;10.70
42905;DHT22;28550;51.228;4.528;2023-05-20T14:49:15;23.90;4.10
42905;DHT22;28550;51.228;4.528;2023-05-20T14:51:41;24.60;1.00
42905;DHT22;28550;51.228;4.528;2023-05-20T14:54:08;25.30;1.00
42905;DHT22;28550;51.228;4.528;2023-05-20T14:56:37;25.60;1.00
42905;DHT22;28550;51.228;4.528;2023-05-20T14:59:03;25.60;9.50
42905;DHT22;28550;51.228;4.528;2023-05-20T15:01:29;25.70;3.90
42905;DHT22;28550;51.228;4.528;2023-05-20T15:03:56;25.90;3.70
42905;DHT22;28550;51.228;4.528;2023-05-20T15:06:22;25.00;6.50
42905;DHT22;28550;51.228;4.528;2023-05-20T15:08:50;24.10;6.90
42905;DHT22;28550;51.228;4.528;2023-05-20T15:11:16;23.70;5.90
42905;DHT22;28550;51.228;4.528;2023-05-20T15:13:42;23.30;12.70
42905;DHT22;28550;51.228;4.528;2023-05-20T15:16:11;23.30;13.80
42905;DHT22;28550;51.228;4.528;2023-05-20T15:18:37;23.30;19.80
42905;DHT22;28550;51.228;4.528;2023-05-20T15:21:04;23.50;9.10
42905;DHT22;28550;51.228;4.528;2023-05-20T15:23:31;23.80;16.00
42905;DHT22;28550;51.228;4.528;2023-05-20T15:25:57;24.60;6.00
42905;DHT22;28550;51.228;4.528;2023-05-20T15:28:23;24.80;1.90
42905;DHT22;28550;51.228;4.528;2023-05-20T15:30:55;25.00;15.60
42905;DHT22;28550;51.228;4.528;2023-05-20T15:33:21;25.30;5.90
42905;DHT22;28550;51.228;4.528;2023-05-20T15:35:47;25.00;7.80
42905;DHT22;28550;51.228;4.528;2023-05-20T15:38:14;24.60;13.30
42905;DHT22;28550;51.228;4.528;2023-05-20T15:40:41;24.00;13.30
42905;DHT22;28550;51.228;4.528;2023-05-20T15:43:07;23.90;14.20
42905;DHT22;28550;51.228;4.528;2023-05-20T15:45:33;24.20;13.60
42905;DHT22;28550;51.228;4.528;2023-05-20T15:47:59;25.30;15.20
42905;DHT22;28550;51.228;4.528;2023-05-20T15:50:25;26.00;5.60
42905;DHT22;28550;51.228;4.528;2023-05-20T15:52:53;25.50;5.20
42905;DHT22;28550;51.228;4.528;2023-05-20T15:55:21;25.60;18.80
42905;DHT22;28550;51.228;4.528;2023-05-20T15:57:49;25.80;12.10
42905;DHT22;28550;51.228;4.528;2023-05-20T16:00:19;26.20;12.60
42905;DHT22;28550;51.228;4.528;2023-05-20T16:02:45;26.30;11.20
42905;DHT22;28550;51.228;4.528;2023-05-20T16:05:11;26.30;9.60
42905;DHT22;28550;51.228;4.528;2023-05-20T16:07:40;25.60;2.40